createdAt,value
2023-03-07T00:00:14.302Z,6.68
2023-03-07T00:02:43.047Z,7.53
2023-03-07T00:05:12.553Z,6.65
2023-03-07T00:07:41.159Z,7.05
2023-03-07T00:10:10.562Z,7.07
2023-03-07T00:12:41.678Z,8.20
2023-03-07T00:15:11.048Z,7.43
2023-03-07T00:17:40.328Z,6.45
2023-03-07T00:20:11.028Z,6.70
2023-03-07T00:22:39.819Z,6.85
2023-03-07T00:25:08.868Z,6.97
2023-03-07T00:27:37.539Z,6.20
2023-03-07T00:30:12.461Z,6.03
2023-03-07T00:32:41.716Z,6.65
2023-03-07T00:35:10.745Z,6.72
2023-03-07T00:37:39.382Z,6.85
2023-03-07T00:40:09.555Z,6.72
2023-03-07T00:42:38.228Z,6.35
2023-03-07T00:45:09.007Z,6.90
2023-03-07T00:47:37.640Z,7.15
2023-03-07T00:50:06.638Z,6.07
2023-03-07T00:52:35.566Z,7.15
2023-03-07T00:55:04.401Z,5.90
2023-03-07T00:57:33.142Z,7.13
2023-03-07T01:00:01.838Z,6.70
2023-03-07T01:02:32.048Z,7.03
2023-03-07T01:05:00.746Z,7.30
2023-03-07T01:07:29.403Z,6.97
2023-03-07T01:09:58.048Z,7.30
2023-03-07T01:12:26.917Z,5.90
2023-03-07T01:14:55.894Z,6.57
2023-03-07T01:17:24.639Z,6.68
2023-03-07T01:19:54.859Z,6.28
2023-03-07T01:22:23.922Z,7.07
2023-03-07T01:24:53.235Z,7.53
2023-03-07T01:27:22.016Z,6.68
2023-03-07T01:29:50.585Z,6.75
2023-03-07T01:32:19.269Z,6.82
2023-03-07T01:34:48.100Z,6.78
2023-03-07T01:37:18.923Z,6.45
2023-03-07T01:39:48.178Z,6.60
2023-03-07T01:42:18.966Z,5.90
2023-03-07T01:45:00.190Z,6.13
2023-03-07T01:47:34.694Z,6.18
2023-03-07T01:50:05.809Z,5.45
2023-03-07T01:52:39.247Z,4.60
2023-03-07T01:55:13.697Z,5.22
2023-03-07T01:57:45.081Z,5.05
2023-03-07T02:00:19.766Z,4.80
2023-03-07T02:02:52.010Z,4.57
2023-03-07T02:05:25.345Z,4.38
2023-03-07T02:07:56.138Z,4.35
2023-03-07T02:10:27.958Z,4.97
2023-03-07T02:12:56.683Z,5.28
2023-03-07T02:15:25.878Z,4.72
2023-03-07T02:17:54.853Z,5.32
2023-03-07T02:20:28.846Z,4.85
2023-03-07T02:22:59.029Z,5.32
2023-03-07T02:25:32.228Z,4.53
2023-03-07T02:28:04.466Z,4.38
2023-03-07T02:30:34.341Z,4.90
2023-03-07T02:33:03.129Z,4.75
2023-03-07T02:35:32.038Z,4.95
2023-03-07T02:38:05.021Z,4.47
2023-03-07T02:40:34.328Z,4.68
2023-03-07T02:43:06.034Z,4.60
2023-03-07T02:45:34.960Z,4.30
2023-03-07T02:48:03.603Z,4.55
2023-03-07T02:50:32.991Z,4.20
2023-03-07T02:53:01.946Z,4.28
2023-03-07T02:55:30.719Z,4.38
2023-03-07T02:58:04.668Z,4.40
2023-03-07T03:00:33.357Z,4.68
2023-03-07T03:03:02.506Z,5.00
2023-03-07T03:05:31.121Z,4.13
2023-03-07T03:07:59.770Z,4.53
2023-03-07T03:10:28.442Z,3.97
2023-03-07T03:12:58.030Z,4.75
2023-03-07T03:15:28.265Z,4.32
2023-03-07T03:17:57.109Z,4.40
2023-03-07T03:20:27.960Z,4.10
2023-03-07T03:22:58.287Z,4.80
2023-03-07T03:25:27.228Z,4.75
2023-03-07T03:27:55.975Z,4.60
2023-03-07T03:30:32.301Z,5.05
2023-03-07T03:33:02.627Z,4.90
2023-03-07T03:35:33.565Z,5.82
2023-03-07T03:38:03.016Z,5.57
2023-03-07T03:40:32.012Z,5.05
2023-03-07T03:43:00.792Z,4.88
2023-03-07T03:45:30.956Z,5.20
2023-03-07T03:47:59.545Z,4.40
2023-03-07T03:50:28.388Z,4.65
2023-03-07T03:52:57.034Z,4.93
2023-03-07T03:55:25.771Z,4.47
2023-03-07T03:57:54.729Z,4.43
2023-03-07T04:00:23.796Z,5.15
2023-03-07T04:02:54.083Z,4.60
2023-03-07T04:05:24.131Z,4.20
2023-03-07T04:07:52.817Z,4.30
2023-03-07T04:10:22.297Z,4.93
2023-03-07T04:12:50.959Z,4.40
2023-03-07T04:15:19.973Z,4.68
2023-03-07T04:17:48.626Z,4.88
2023-03-07T04:20:19.113Z,5.10
2023-03-07T04:22:49.440Z,4.95
2023-03-07T04:25:19.965Z,5.00
2023-03-07T04:27:49.167Z,4.45
2023-03-07T04:30:18.318Z,5.10
2023-03-07T04:32:47.106Z,4.10
2023-03-07T04:35:15.753Z,4.60
2023-03-07T04:37:45.921Z,5.03
2023-03-07T04:40:15.055Z,4.13
2023-03-07T04:42:43.812Z,4.47
2023-03-07T04:45:13.310Z,4.75
2023-03-07T04:47:41.989Z,4.75
2023-03-07T04:50:11.292Z,4.35
2023-03-07T04:52:42.150Z,5.28
2023-03-07T04:55:12.995Z,4.35
2023-03-07T04:57:42.106Z,4.82
2023-03-07T05:00:11.783Z,4.50
2023-03-07T05:02:41.357Z,4.32
2023-03-07T05:05:10.659Z,5.00
2023-03-07T05:07:39.515Z,4.15
2023-03-07T05:10:09.391Z,4.43
2023-03-07T05:12:39.840Z,4.05
2023-03-07T05:15:10.215Z,3.08
2023-03-07T05:17:39.194Z,4.80
2023-03-07T05:20:10.525Z,4.97
2023-03-07T05:22:39.260Z,4.70
2023-03-07T05:25:08.218Z,5.20
2023-03-07T05:27:36.951Z,4.63
2023-03-07T05:30:07.629Z,4.63
2023-03-07T05:32:36.433Z,4.65
2023-03-07T05:35:05.875Z,4.00
2023-03-07T05:37:34.650Z,4.65
2023-03-07T05:40:04.305Z,4.28
2023-03-07T05:42:33.058Z,3.75
2023-03-07T05:45:01.736Z,3.90
2023-03-07T05:47:32.616Z,3.17
2023-03-07T05:50:01.564Z,2.83
2023-03-07T05:52:31.254Z,3.97
2023-03-07T05:54:59.964Z,6.07
2023-03-07T05:57:28.792Z,8.90
2023-03-07T05:59:57.502Z,7.03
2023-03-07T06:02:26.321Z,5.32
2023-03-07T06:04:56.858Z,3.80
2023-03-07T06:07:25.534Z,4.80
2023-03-07T06:09:54.190Z,3.83
2023-03-07T06:12:22.940Z,4.63
2023-03-07T06:14:51.764Z,4.35
2023-03-07T06:17:20.423Z,3.92
2023-03-07T06:19:49.089Z,3.85
2023-03-07T06:22:19.172Z,4.05
2023-03-07T06:24:47.901Z,3.42
2023-03-07T06:27:16.658Z,3.55
2023-03-07T06:29:45.548Z,3.75
2023-03-07T06:32:14.232Z,3.80
2023-03-07T06:34:42.981Z,4.28
2023-03-07T06:37:12.763Z,3.25
2023-03-07T06:39:43.167Z,4.25
2023-03-07T06:42:11.826Z,4.72
2023-03-07T06:44:42.908Z,5.05
2023-03-07T06:47:12.537Z,4.13
2023-03-07T06:49:41.511Z,5.88
2023-03-07T06:52:10.582Z,4.82
2023-03-07T06:54:39.528Z,4.22
2023-03-07T06:57:10.434Z,4.03
2023-03-07T06:59:39.985Z,3.78
2023-03-07T07:02:08.965Z,3.53
2023-03-07T07:04:37.683Z,3.72
2023-03-07T07:07:07.221Z,3.22
2023-03-07T07:09:36.344Z,3.70
2023-03-07T07:12:06.090Z,3.88
2023-03-07T07:14:38.106Z,3.92
2023-03-07T07:17:06.875Z,3.45
2023-03-07T07:19:35.847Z,3.60
2023-03-07T07:22:04.626Z,3.83
2023-03-07T07:24:33.406Z,3.30
2023-03-07T07:27:02.104Z,3.75
2023-03-07T07:29:31.249Z,3.28
2023-03-07T07:32:02.264Z,2.70
2023-03-07T07:34:31.280Z,2.10
2023-03-07T07:37:00.121Z,2.00
2023-03-07T07:39:30.044Z,2.53
2023-03-07T07:41:58.881Z,1.50
2023-03-07T07:44:31.565Z,2.20
2023-03-07T07:47:05.714Z,2.13
2023-03-07T07:49:35.613Z,1.50
2023-03-07T07:52:04.468Z,1.80
2023-03-07T07:54:33.271Z,1.63
2023-03-07T07:57:02.203Z,1.55
2023-03-07T07:59:31.872Z,1.38
2023-03-07T08:02:00.671Z,1.77
2023-03-07T08:04:31.210Z,1.63
2023-03-07T08:06:59.835Z,1.30
2023-03-07T08:09:28.700Z,1.67
2023-03-07T08:11:57.330Z,1.88
2023-03-07T08:14:26.034Z,1.50
2023-03-07T08:16:54.723Z,1.40
2023-03-07T08:19:23.675Z,1.15
2023-03-07T08:21:53.606Z,1.25
2023-03-07T08:24:32.022Z,1.20
2023-03-07T08:27:07.468Z,1.20
2023-03-07T08:29:36.769Z,1.00
2023-03-07T08:32:05.820Z,1.35
2023-03-07T08:34:34.624Z,0.93
2023-03-07T08:37:05.145Z,1.00
2023-03-07T08:39:33.872Z,1.30
2023-03-07T08:42:02.573Z,1.17
2023-03-07T08:44:31.350Z,1.13
2023-03-07T08:47:00.015Z,0.80
2023-03-07T08:49:28.767Z,1.20
2023-03-07T08:51:57.499Z,1.10
2023-03-07T08:54:27.467Z,1.30
2023-03-07T08:56:56.516Z,1.10
2023-03-07T08:59:25.308Z,0.70
2023-03-07T09:01:54.003Z,1.02
2023-03-07T09:04:22.908Z,0.95
2023-03-07T09:06:51.637Z,1.00
2023-03-07T09:09:20.268Z,0.80
2023-03-07T09:11:50.327Z,0.77
2023-03-07T09:14:18.907Z,0.80
2023-03-07T09:16:47.682Z,0.90
2023-03-07T09:19:16.450Z,0.90
2023-03-07T09:21:45.242Z,1.00
2023-03-07T09:24:13.889Z,0.95
2023-03-07T09:26:42.554Z,0.93
2023-03-07T09:29:12.550Z,2.03
2023-03-07T09:31:44.259Z,0.60
2023-03-07T09:34:13.011Z,0.50
2023-03-07T09:36:41.717Z,0.90
2023-03-07T09:39:14.777Z,0.73
2023-03-07T09:41:56.982Z,0.80
2023-03-07T09:44:34.649Z,0.98
2023-03-07T09:47:27.229Z,0.60
2023-03-07T09:49:56.180Z,0.55
2023-03-07T09:52:26.051Z,1.17
2023-03-07T09:54:57.857Z,0.50
2023-03-07T09:57:28.467Z,0.60
2023-03-07T10:00:00.625Z,0.68
2023-03-07T10:02:31.046Z,0.50
2023-03-07T10:05:04.356Z,0.75
2023-03-07T10:07:33.169Z,0.82
2023-03-07T10:10:02.852Z,0.93
2023-03-07T10:12:35.292Z,0.60
2023-03-07T10:15:10.357Z,0.40
2023-03-07T10:17:47.815Z,0.75
2023-03-07T10:20:21.495Z,0.82
2023-03-07T10:22:53.845Z,0.55
2023-03-07T10:25:26.584Z,1.02
2023-03-07T10:27:58.654Z,1.30
2023-03-07T10:30:31.880Z,1.60
2023-03-07T10:33:01.713Z,0.95
2023-03-07T10:35:38.538Z,1.33
2023-03-07T10:38:15.535Z,1.00
2023-03-07T10:40:45.496Z,0.80
2023-03-07T10:43:17.401Z,0.75
2023-03-07T10:45:47.422Z,1.02
2023-03-07T10:48:19.982Z,1.02
2023-03-07T10:50:53.143Z,0.90
2023-03-07T10:53:27.326Z,0.90
2023-03-07T10:56:10.078Z,0.50
2023-03-07T10:58:38.840Z,0.70
2023-03-07T11:01:19.429Z,0.60
2023-03-07T11:03:54.207Z,1.30
2023-03-07T11:06:40.375Z,0.90
2023-03-07T11:09:16.926Z,0.73
2023-03-07T11:11:49.529Z,1.08
2023-03-07T11:14:19.007Z,1.08
2023-03-07T11:16:52.512Z,0.80
2023-03-07T11:19:42.241Z,1.13
2023-03-07T11:22:19.549Z,0.80
2023-03-07T11:24:57.194Z,1.25
2023-03-07T11:27:28.289Z,0.70
2023-03-07T11:30:11.132Z,1.00
2023-03-07T11:32:43.116Z,1.50
2023-03-07T11:35:15.960Z,0.43
2023-03-07T11:37:49.259Z,1.17
2023-03-07T11:40:23.165Z,1.33
2023-03-07T11:42:57.638Z,0.95
2023-03-07T11:45:34.651Z,1.17
2023-03-07T11:48:11.355Z,0.82
2023-03-07T11:50:41.386Z,0.88
2023-03-07T11:53:30.251Z,1.10
2023-03-07T11:56:13.283Z,0.70
2023-03-07T11:58:53.461Z,0.98
2023-03-07T12:01:25.985Z,1.10
2023-03-07T12:04:03.267Z,0.65
2023-03-07T12:06:37.500Z,1.10
2023-03-07T12:09:14.838Z,1.02
2023-03-07T12:11:48.826Z,1.50
2023-03-07T12:14:24.506Z,0.70
2023-03-07T12:16:57.418Z,1.55
2023-03-07T12:19:39.514Z,1.38
2023-03-07T12:22:14.220Z,0.80
2023-03-07T12:24:48.716Z,0.80
2023-03-07T12:27:19.084Z,1.38
2023-03-07T12:29:51.941Z,1.05
2023-03-07T12:32:23.593Z,0.60
2023-03-07T12:34:55.687Z,1.17
2023-03-07T12:37:27.189Z,0.70
2023-03-07T12:39:58.016Z,1.45
2023-03-07T12:42:33.248Z,1.88
2023-03-07T12:45:06.220Z,0.73
2023-03-07T12:47:38.070Z,0.75
2023-03-07T12:50:11.038Z,1.27
2023-03-07T12:52:42.911Z,1.45
2023-03-07T12:55:18.897Z,3.30
2023-03-07T12:57:51.330Z,1.40
2023-03-07T13:00:22.952Z,1.02
2023-03-07T13:02:55.052Z,0.60
2023-03-07T13:05:25.130Z,1.55
2023-03-07T13:07:54.020Z,1.88
2023-03-07T13:10:24.073Z,0.82
2023-03-07T13:12:53.538Z,1.70
2023-03-07T13:15:40.821Z,3.28
2023-03-07T13:18:27.196Z,0.90
2023-03-07T13:21:11.344Z,0.80
2023-03-07T13:23:40.092Z,0.95
2023-03-07T13:26:11.930Z,0.80
2023-03-07T13:28:42.096Z,0.63
2023-03-07T13:31:30.767Z,1.02
2023-03-07T13:34:19.394Z,1.60
2023-03-07T13:36:49.435Z,0.73
2023-03-07T13:39:44.861Z,0.50
2023-03-07T13:42:28.438Z,1.73
2023-03-07T13:44:57.245Z,1.08
2023-03-07T13:47:43.575Z,0.70
2023-03-07T13:50:27.012Z,1.30
2023-03-07T13:52:57.060Z,1.75
2023-03-07T13:55:31.445Z,1.00
2023-03-07T13:58:02.722Z,1.45
2023-03-07T14:00:36.198Z,0.80
2023-03-07T14:03:04.910Z,1.30
2023-03-07T14:05:35.831Z,0.80
2023-03-07T14:08:07.634Z,0.82
2023-03-07T14:10:36.617Z,0.90
2023-03-07T14:13:15.944Z,0.68
2023-03-07T14:15:49.732Z,0.75
2023-03-07T14:18:22.493Z,0.80
2023-03-07T14:20:55.729Z,0.63
2023-03-07T14:23:43.558Z,0.60
2023-03-07T14:26:16.606Z,0.90
2023-03-07T14:28:49.947Z,0.73
2023-03-07T14:31:25.374Z,0.60
2023-03-07T14:33:54.729Z,0.93
2023-03-07T14:36:25.915Z,0.82
2023-03-07T14:38:56.814Z,0.70
2023-03-07T14:41:38.045Z,0.80
2023-03-07T14:44:20.874Z,0.70
2023-03-07T14:46:56.226Z,0.80
2023-03-07T14:49:30.066Z,0.60
2023-03-07T14:51:59.764Z,0.55
2023-03-07T14:54:32.588Z,0.70
2023-03-07T14:57:02.945Z,0.90
2023-03-07T14:59:31.831Z,0.82
2023-03-07T15:02:00.541Z,0.68
2023-03-07T15:04:30.126Z,0.85
2023-03-07T15:06:59.676Z,1.00
2023-03-07T15:09:28.839Z,0.90
2023-03-07T15:12:00.761Z,0.82
2023-03-07T15:14:35.809Z,0.80
2023-03-07T15:17:05.938Z,1.63
2023-03-07T15:19:37.343Z,0.90
2023-03-07T15:22:07.978Z,1.33
2023-03-07T15:24:38.188Z,2.33
2023-03-07T15:27:10.620Z,1.17
2023-03-07T15:29:46.171Z,1.33
2023-03-07T15:32:30.876Z,1.40
2023-03-07T15:35:03.564Z,1.35
2023-03-07T15:37:33.527Z,1.65
2023-03-07T15:40:03.123Z,2.22
2023-03-07T15:42:32.076Z,2.53
2023-03-07T15:45:03.110Z,1.73
2023-03-07T15:47:33.406Z,2.67
2023-03-07T15:50:03.112Z,1.75
2023-03-07T15:52:33.307Z,3.55
2023-03-07T15:55:05.285Z,3.90
2023-03-07T15:57:35.695Z,1.20
2023-03-07T16:00:07.828Z,1.17
2023-03-07T16:02:41.594Z,1.35
2023-03-07T16:05:25.215Z,1.38
2023-03-07T16:07:54.760Z,2.42
2023-03-07T16:10:24.082Z,2.67
2023-03-07T16:12:52.810Z,2.10
2023-03-07T16:15:23.794Z,2.63
2023-03-07T16:17:56.206Z,3.78
2023-03-07T16:20:27.071Z,2.17
2023-03-07T16:22:56.266Z,2.03
2023-03-07T16:25:26.247Z,3.00
2023-03-07T16:27:56.655Z,3.30
2023-03-07T16:30:27.887Z,2.80
2023-03-07T16:32:56.700Z,1.50
2023-03-07T16:35:26.508Z,1.38
2023-03-07T16:37:55.396Z,1.73
2023-03-07T16:40:26.010Z,1.92
2023-03-07T16:42:54.827Z,2.20
2023-03-07T16:45:24.422Z,1.88
2023-03-07T16:47:55.158Z,2.10
2023-03-07T16:50:25.618Z,2.60
2023-03-07T16:52:54.265Z,3.65
2023-03-07T16:55:23.385Z,2.97
2023-03-07T16:57:54.683Z,2.35
2023-03-07T17:00:24.366Z,2.05
2023-03-07T17:02:55.786Z,2.20
2023-03-07T17:05:25.736Z,2.83
2023-03-07T17:07:54.720Z,2.40
2023-03-07T17:10:24.456Z,1.85
2023-03-07T17:12:55.178Z,1.90
2023-03-07T17:15:26.413Z,1.30
2023-03-07T17:17:56.473Z,1.33
2023-03-07T17:20:25.616Z,1.88
2023-03-07T17:22:54.644Z,1.35
2023-03-07T17:25:24.063Z,0.90
2023-03-07T17:27:54.766Z,1.15
2023-03-07T17:30:24.878Z,1.70
2023-03-07T17:32:53.654Z,2.92
2023-03-07T17:35:24.121Z,1.10
2023-03-07T17:37:54.086Z,1.08
2023-03-07T17:40:23.220Z,1.05
2023-03-07T17:42:54.742Z,0.70
2023-03-07T17:45:23.506Z,0.85
2023-03-07T17:47:54.027Z,1.15
2023-03-07T17:50:24.911Z,1.00
2023-03-07T17:52:54.065Z,1.00
2023-03-07T17:55:24.850Z,1.10
2023-03-07T17:57:53.625Z,0.80
2023-03-07T18:00:23.026Z,1.60
2023-03-07T18:02:51.898Z,1.40
2023-03-07T18:05:20.792Z,1.52
2023-03-07T18:07:52.671Z,1.98
2023-03-07T18:10:22.543Z,1.52
2023-03-07T18:12:53.553Z,1.33
2023-03-07T18:15:23.037Z,1.50
2023-03-07T18:17:52.037Z,2.25
2023-03-07T18:20:21.803Z,1.98
2023-03-07T18:22:51.950Z,1.75
2023-03-07T18:25:20.657Z,1.98
2023-03-07T18:27:49.964Z,4.40
2023-03-07T18:30:18.991Z,5.00
2023-03-07T18:32:47.667Z,3.05
2023-03-07T18:35:17.000Z,2.90
2023-03-07T18:37:45.765Z,2.88
2023-03-07T18:40:16.646Z,3.67
2023-03-07T18:42:45.424Z,4.00
2023-03-07T18:45:14.142Z,2.30
2023-03-07T18:47:42.887Z,3.22
2023-03-07T18:50:12.243Z,2.60
2023-03-07T18:52:41.150Z,3.17
2023-03-07T18:55:10.333Z,2.47
2023-03-07T18:57:40.309Z,2.60
2023-03-07T19:00:11.455Z,2.60
2023-03-07T19:02:40.422Z,2.83
2023-03-07T19:05:10.731Z,2.95
2023-03-07T19:07:39.395Z,3.45
2023-03-07T19:10:08.469Z,3.08
2023-03-07T19:12:37.182Z,2.88
2023-03-07T19:15:07.919Z,2.42
2023-03-07T19:17:40.304Z,2.95
2023-03-07T19:20:09.413Z,2.45
2023-03-07T19:22:38.034Z,2.83
2023-03-07T19:25:07.910Z,2.63
2023-03-07T19:27:36.821Z,2.35
2023-03-07T19:30:08.208Z,2.63
2023-03-07T19:32:37.069Z,3.13
2023-03-07T19:35:05.965Z,2.47
2023-03-07T19:37:34.703Z,3.40
2023-03-07T19:40:03.348Z,4.05
2023-03-07T19:42:32.033Z,3.97
2023-03-07T19:45:00.713Z,4.13
2023-03-07T19:47:31.835Z,6.65
2023-03-07T19:50:00.849Z,5.25
2023-03-07T19:52:29.590Z,6.47
2023-03-07T19:54:58.298Z,6.00
2023-03-07T19:57:27.096Z,4.47
2023-03-07T19:59:56.440Z,3.55
2023-03-07T20:02:26.326Z,5.05
2023-03-07T20:04:57.992Z,3.90
2023-03-07T20:07:26.824Z,3.78
2023-03-07T20:09:55.587Z,3.60
2023-03-07T20:12:24.266Z,2.85
2023-03-07T20:14:52.932Z,3.30
2023-03-07T20:17:21.751Z,3.83
2023-03-07T20:19:51.831Z,3.78
2023-03-07T20:22:23.512Z,3.58
2023-03-07T20:24:52.587Z,4.93
2023-03-07T20:27:23.438Z,3.45
2023-03-07T20:29:52.192Z,3.30
2023-03-07T20:32:20.982Z,3.00
2023-03-07T20:34:52.670Z,3.42
2023-03-07T20:37:22.916Z,3.58
2023-03-07T20:39:51.530Z,3.13
2023-03-07T20:42:20.193Z,3.03
2023-03-07T20:44:49.692Z,3.30
2023-03-07T20:47:18.490Z,3.92
2023-03-07T20:49:47.382Z,4.18
2023-03-07T20:52:16.112Z,3.70
2023-03-07T20:54:46.243Z,4.05
2023-03-07T20:57:14.829Z,3.80
2023-03-07T20:59:43.534Z,3.30
2023-03-07T21:02:13.200Z,4.75
2023-03-07T21:04:42.357Z,3.28
2023-03-07T21:07:11.031Z,3.78
2023-03-07T21:09:39.739Z,2.80
2023-03-07T21:12:13.008Z,2.88
2023-03-07T21:14:41.761Z,3.00
2023-03-07T21:17:12.663Z,2.45
2023-03-07T21:19:41.472Z,2.50
2023-03-07T21:22:10.115Z,2.25
2023-03-07T21:24:38.791Z,2.60
2023-03-07T21:27:07.339Z,2.63
2023-03-07T21:29:38.126Z,2.40
2023-03-07T21:32:06.987Z,2.25
2023-03-07T21:34:35.622Z,2.42
2023-03-07T21:37:04.258Z,2.63
2023-03-07T21:39:32.932Z,2.75
2023-03-07T21:42:01.557Z,2.88
2023-03-07T21:44:30.310Z,2.50
2023-03-07T21:47:00.463Z,2.75
2023-03-07T21:49:29.227Z,2.20
2023-03-07T21:51:57.891Z,2.60
2023-03-07T21:54:26.695Z,2.40
2023-03-07T21:56:55.335Z,2.28
2023-03-07T21:59:23.985Z,1.92
2023-03-07T22:01:52.542Z,2.10
2023-03-07T22:04:22.612Z,2.00
2023-03-07T22:06:53.019Z,2.55
2023-03-07T22:09:21.811Z,2.10
2023-03-07T22:11:50.811Z,2.22
2023-03-07T22:14:19.442Z,2.20
2023-03-07T22:16:48.139Z,2.50
2023-03-07T22:19:16.871Z,2.97
2023-03-07T22:21:46.921Z,2.60
2023-03-07T22:24:15.594Z,2.85
2023-03-07T22:26:44.467Z,2.60
2023-03-07T22:29:13.199Z,2.42
2023-03-07T22:31:41.892Z,1.98
2023-03-07T22:34:10.662Z,2.15
2023-03-07T22:36:39.363Z,2.00
2023-03-07T22:39:09.434Z,2.22
2023-03-07T22:41:38.323Z,2.20
2023-03-07T22:44:06.987Z,2.58
2023-03-07T22:46:35.658Z,2.70
2023-03-07T22:49:04.288Z,2.20
2023-03-07T22:51:33.190Z,2.60
2023-03-07T22:54:01.818Z,2.65
2023-03-07T22:56:32.011Z,2.35
2023-03-07T22:59:00.678Z,2.55
2023-03-07T23:01:30.237Z,2.55
2023-03-07T23:03:59.736Z,2.05
2023-03-07T23:06:29.970Z,2.42
2023-03-07T23:08:59.758Z,2.60
2023-03-07T23:11:29.046Z,2.30
2023-03-07T23:13:59.313Z,2.40
2023-03-07T23:16:29.743Z,2.15
2023-03-07T23:18:59.164Z,2.20
2023-03-07T23:21:29.446Z,2.30
2023-03-07T23:23:58.538Z,2.55
2023-03-07T23:26:28.538Z,2.47
2023-03-07T23:28:58.953Z,2.10
2023-03-07T23:31:28.944Z,2.50
2023-03-07T23:33:58.224Z,2.20
2023-03-07T23:36:28.956Z,2.13
2023-03-07T23:38:57.989Z,2.47
2023-03-07T23:41:26.829Z,1.90
2023-03-07T23:43:56.056Z,2.35
2023-03-07T23:46:26.587Z,1.80
2023-03-07T23:48:55.717Z,2.00
2023-03-07T23:51:24.699Z,2.08
2023-03-07T23:53:53.414Z,2.17
2023-03-07T23:56:22.059Z,2.08
2023-03-07T23:58:51.354Z,2.35
